sensor_id;sensor_type;location;lat;lon;timestamp;pressure;altitude;pressure_sealevel;temperature;humidity
10261;BME280;5175;42.606;23.388;2024-02-16T00:01:13;94285.19;;;1.47;100.00
10261;BME280;5175;42.606;23.388;2024-02-16T00:03:40;94290.91;;;1.38;100.00
10261;BME280;5175;42.606;23.388;2024-02-16T00:06:07;94284.69;;;1.32;100.00
10261;BME280;5175;42.606;23.388;2024-02-16T00:08:33;94280.47;;;1.24;100.00
10261;BME280;5175;42.606;23.388;2024-02-16T00:11:04;94285.44;;;1.39;100.00
10261;BME280;5175;42.606;23.388;2024-02-16T00:13:30;94265.09;;;1.28;100.00
10261;BME280;5175;42.606;23.388;2024-02-16T00:15:57;94270.06;;;1.43;100.00
10261;BME280;5175;42.606;23.388;2024-02-16T00:37:42;94289.81;;;1.89;98.63
10261;BME280;5175;42.606;23.388;2024-02-16T00:40:10;94289.31;;;1.74;99.12
10261;BME280;5175;42.606;23.388;2024-02-16T00:42:37;94292.44;;;1.58;99.91
10261;BME280;5175;42.606;23.388;2024-02-16T00:45:04;94290.88;;;1.44;100.00
10261;BME280;5175;42.606;23.388;2024-02-16T00:47:31;94269.13;;;1.24;100.00
10261;BME280;5175;42.606;23.388;2024-02-16T00:49:58;94297.81;;;1.32;100.00
10261;BME280;5175;42.606;23.388;2024-02-16T00:52:25;94292.78;;;1.24;100.00
10261;BME280;5175;42.606;23.388;2024-02-16T00:54:53;94288.00;;;1.08;100.00
10261;BME280;5175;42.606;23.388;2024-02-16T00:57:20;94291.06;;;1.05;100.00
10261;BME280;5175;42.606;23.388;2024-02-16T00:59:46;94296.50;;;1.10;100.00
10261;BME280;5175;42.606;23.388;2024-02-16T01:02:13;94281.78;;;1.02;100.00
10261;BME280;5175;42.606;23.388;2024-02-16T01:04:42;94289.38;;;1.17;100.00
10261;BME280;5175;42.606;23.388;2024-02-16T01:07:09;94289.66;;;0.96;100.00
10261;BME280;5175;42.606;23.388;2024-02-16T01:09:36;94273.13;;;0.89;100.00
10261;BME280;5175;42.606;23.388;2024-02-16T01:12:04;94281.16;;;1.00;100.00
10261;BME280;5175;42.606;23.388;2024-02-16T01:14:31;94287.22;;;1.07;100.00
10261;BME280;5175;42.606;23.388;2024-02-16T01:16:58;94286.59;;;1.12;100.00
10261;BME280;5175;42.606;23.388;2024-02-16T01:19:25;94285.38;;;1.08;100.00
10261;BME280;5175;42.606;23.388;2024-02-16T01:21:51;94279.00;;;0.84;100.00
10261;BME280;5175;42.606;23.388;2024-02-16T01:24:23;94287.47;;;0.80;100.00
10261;BME280;5175;42.606;23.388;2024-02-16T01:26:49;94285.88;;;0.79;100.00
10261;BME280;5175;42.606;23.388;2024-02-16T01:29:17;94275.34;;;0.85;100.00
10261;BME280;5175;42.606;23.388;2024-02-16T01:31:44;94280.59;;;0.85;100.00
10261;BME280;5175;42.606;23.388;2024-02-16T01:34:11;94284.22;;;0.97;100.00
10261;BME280;5175;42.606;23.388;2024-02-16T01:36:37;94275.16;;;0.87;100.00
10261;BME280;5175;42.606;23.388;2024-02-16T01:39:04;94279.16;;;0.96;100.00
10261;BME280;5175;42.606;23.388;2024-02-16T01:41:32;94268.63;;;1.02;100.00
10261;BME280;5175;42.606;23.388;2024-02-16T01:43:59;94274.06;;;1.07;100.00
10261;BME280;5175;42.606;23.388;2024-02-16T01:46:27;94270.81;;;1.05;100.00
10261;BME280;5175;42.606;23.388;2024-02-16T01:48:54;94275.91;;;1.00;100.00
10261;BME280;5175;42.606;23.388;2024-02-16T01:51:23;94272.28;;;1.01;100.00
10261;BME280;5175;42.606;23.388;2024-02-16T01:53:52;94269.66;;;1.01;100.00
10261;BME280;5175;42.606;23.388;2024-02-16T01:56:20;94264.63;;;1.00;100.00
10261;BME280;5175;42.606;23.388;2024-02-16T01:58:47;94264.00;;;0.98;100.00
10261;BME280;5175;42.606;23.388;2024-02-16T02:01:14;94246.28;;;0.80;100.00
10261;BME280;5175;42.606;23.388;2024-02-16T02:03:42;94262.44;;;0.84;100.00
10261;BME280;5175;42.606;23.388;2024-02-16T02:06:08;94260.25;;;0.74;100.00
10261;BME280;5175;42.606;23.388;2024-02-16T02:08:35;94258.19;;;0.83;100.00
10261;BME280;5175;42.606;23.388;2024-02-16T02:11:02;94258.84;;;0.65;100.00
10261;BME280;5175;42.606;23.388;2024-02-16T02:13:29;94258.00;;;0.84;100.00
10261;BME280;5175;42.606;23.388;2024-02-16T02:15:56;94259.00;;;0.83;100.00
10261;BME280;5175;42.606;23.388;2024-02-16T02:18:23;94255.75;;;0.88;100.00
10261;BME280;5175;42.606;23.388;2024-02-16T02:20:51;94252.69;;;0.97;100.00
10261;BME280;5175;42.606;23.388;2024-02-16T02:23:20;94252.94;;;0.89;100.00
10261;BME280;5175;42.606;23.388;2024-02-16T02:25:47;94261.41;;;0.91;100.00
10261;BME280;5175;42.606;23.388;2024-02-16T02:28:14;94261.41;;;0.91;100.00
10261;BME280;5175;42.606;23.388;2024-02-16T02:30:43;94235.84;;;0.60;100.00
10261;BME280;5175;42.606;23.388;2024-02-16T02:33:11;94256.63;;;0.62;100.00
10261;BME280;5175;42.606;23.388;2024-02-16T02:35:39;94262.69;;;0.69;100.00
10261;BME280;5175;42.606;23.388;2024-02-16T02:38:05;94256.22;;;0.72;100.00
10261;BME280;5175;42.606;23.388;2024-02-16T02:40:33;94256.59;;;0.82;100.00
10261;BME280;5175;42.606;23.388;2024-02-16T02:43:00;94249.38;;;0.64;100.00
10261;BME280;5175;42.606;23.388;2024-02-16T02:45:27;94255.22;;;0.59;100.00
10261;BME280;5175;42.606;23.388;2024-02-16T02:47:54;94261.69;;;0.57;100.00
10261;BME280;5175;42.606;23.388;2024-02-16T02:50:20;94245.56;;;0.47;100.00
10261;BME280;5175;42.606;23.388;2024-02-16T02:52:47;94261.91;;;0.49;100.00
10261;BME280;5175;42.606;23.388;2024-02-16T02:55:14;94264.53;;;0.55;100.00
10261;BME280;5175;42.606;23.388;2024-02-16T02:57:42;94260.28;;;0.54;100.00
10261;BME280;5175;42.606;23.388;2024-02-16T03:00:09;94256.84;;;0.54;100.00
10261;BME280;5175;42.606;23.388;2024-02-16T03:02:37;94260.31;;;0.41;100.00
10261;BME280;5175;42.606;23.388;2024-02-16T03:05:05;94259.47;;;0.54;100.00
10261;BME280;5175;42.606;23.388;2024-02-16T03:07:32;94260.28;;;0.61;100.00
10261;BME280;5175;42.606;23.388;2024-02-16T03:09:59;94254.88;;;0.43;100.00
10261;BME280;5175;42.606;23.388;2024-02-16T03:12:26;94250.44;;;0.30;100.00
10261;BME280;5175;42.606;23.388;2024-02-16T03:14:54;94248.81;;;0.42;100.00
10261;BME280;5175;42.606;23.388;2024-02-16T03:17:21;94267.34;;;0.60;100.00
10261;BME280;5175;42.606;23.388;2024-02-16T03:19:48;94257.31;;;0.38;100.00
10261;BME280;5175;42.606;23.388;2024-02-16T03:22:14;94256.91;;;0.41;100.00
10261;BME280;5175;42.606;23.388;2024-02-16T03:24:41;94254.03;;;0.55;100.00
10261;BME280;5175;42.606;23.388;2024-02-16T03:27:10;94255.88;;;0.48;100.00
10261;BME280;5175;42.606;23.388;2024-02-16T03:29:37;94263.16;;;0.40;100.00
10261;BME280;5175;42.606;23.388;2024-02-16T03:32:05;94260.31;;;0.41;100.00
10261;BME280;5175;42.606;23.388;2024-02-16T03:34:32;94265.34;;;0.49;100.00
10261;BME280;5175;42.606;23.388;2024-02-16T03:36:58;94263.75;;;0.42;100.00
10261;BME280;5175;42.606;23.388;2024-02-16T03:39:25;94270.78;;;0.54;100.00
10261;BME280;5175;42.606;23.388;2024-02-16T03:41:52;94264.53;;;0.55;100.00
10261;BME280;5175;42.606;23.388;2024-02-16T03:44:19;94257.66;;;0.54;100.00
10261;BME280;5175;42.606;23.388;2024-02-16T03:46:46;94243.34;;;0.44;100.00
10261;BME280;5175;42.606;23.388;2024-02-16T03:49:15;94262.34;;;0.46;100.00
10261;BME280;5175;42.606;23.388;2024-02-16T03:51:42;94260.31;;;0.48;100.00
10261;BME280;5175;42.606;23.388;2024-02-16T03:54:08;94268.56;;;0.58;100.00
10261;BME280;5175;42.606;23.388;2024-02-16T03:56:35;94259.72;;;0.46;100.00
10261;BME280;5175;42.606;23.388;2024-02-16T03:59:02;94258.31;;;0.37;100.00
10261;BME280;5175;42.606;23.388;2024-02-16T04:01:30;94257.13;;;0.20;100.00
10261;BME280;5175;42.606;23.388;2024-02-16T04:03:57;94258.31;;;0.37;100.00
10261;BME280;5175;42.606;23.388;2024-02-16T04:06:25;94252.47;;;0.35;100.00
10261;BME280;5175;42.606;23.388;2024-02-16T04:08:52;94258.31;;;0.24;100.00
10261;BME280;5175;42.606;23.388;2024-02-16T04:11:18;94256.72;;;0.36;100.00
10261;BME280;5175;42.606;23.388;2024-02-16T04:13:45;94256.47;;;0.44;100.00
10261;BME280;5175;42.606;23.388;2024-02-16T04:16:12;94259.50;;;0.47;100.00
10261;BME280;5175;42.606;23.388;2024-02-16T04:18:38;94255.69;;;0.43;100.00
10261;BME280;5175;42.606;23.388;2024-02-16T04:21:05;94255.84;;;0.55;100.00
10261;BME280;5175;42.606;23.388;2024-02-16T04:23:33;94241.34;;;0.39;100.00
10261;BME280;5175;42.606;23.388;2024-02-16T04:26:00;94260.50;;;0.53;100.00
10261;BME280;5175;42.606;23.388;2024-02-16T04:28:27;94258.91;;;0.39;100.00
10261;BME280;5175;42.606;23.388;2024-02-16T04:30:54;94265.97;;;0.45;100.00
10261;BME280;5175;42.606;23.388;2024-02-16T04:33:20;94262.34;;;0.39;100.00
10261;BME280;5175;42.606;23.388;2024-02-16T04:35:47;94258.72;;;0.27;100.00
10261;BME280;5175;42.606;23.388;2024-02-16T04:38:15;94264.38;;;0.24;100.00
10261;BME280;5175;42.606;23.388;2024-02-16T04:40:44;94256.72;;;0.23;100.00
10261;BME280;5175;42.606;23.388;2024-02-16T04:43:10;94266.56;;;0.34;100.00
10261;BME280;5175;42.606;23.388;2024-02-16T04:45:37;94259.53;;;0.28;100.00
10261;BME280;5175;42.606;23.388;2024-02-16T04:48:05;94261.34;;;0.21;100.00
10261;BME280;5175;42.606;23.388;2024-02-16T04:50:32;94257.75;;;0.15;100.00
10261;BME280;5175;42.606;23.388;2024-02-16T04:52:59;94263.56;;;0.30;100.00
10261;BME280;5175;42.606;23.388;2024-02-16T04:55:26;94262.16;;;0.28;100.00
10261;BME280;5175;42.606;23.388;2024-02-16T04:57:55;94262.38;;;0.20;100.00
10261;BME280;5175;42.606;23.388;2024-02-16T05:00:22;94262.34;;;0.26;100.00
10261;BME280;5175;42.606;23.388;2024-02-16T05:02:50;94265.34;;;0.36;100.00
10261;BME280;5175;42.606;23.388;2024-02-16T05:05:18;94265.16;;;0.44;100.00
10261;BME280;5175;42.606;23.388;2024-02-16T05:07:47;94269.19;;;0.47;100.00
10261;BME280;5175;42.606;23.388;2024-02-16T05:10:14;94266.38;;;0.48;100.00
10261;BME280;5175;42.606;23.388;2024-02-16T05:12:41;94272.03;;;0.45;100.00
10261;BME280;5175;42.606;23.388;2024-02-16T05:15:09;94275.44;;;0.39;100.00
10261;BME280;5175;42.606;23.388;2024-02-16T05:17:38;94276.88;;;0.48;100.00
10261;BME280;5175;42.606;23.388;2024-02-16T05:20:09;94289.97;;;0.55;100.00
10261;BME280;5175;42.606;23.388;2024-02-16T05:22:41;94288.56;;;0.59;100.00
10261;BME280;5175;42.606;23.388;2024-02-16T05:25:08;94287.56;;;0.53;100.00
10261;BME280;5175;42.606;23.388;2024-02-16T05:27:35;94283.28;;;0.66;100.00
10261;BME280;5175;42.606;23.388;2024-02-16T05:30:03;94298.59;;;0.75;100.00
10261;BME280;5175;42.606;23.388;2024-02-16T05:32:35;94288.53;;;0.66;100.00
10261;BME280;5175;42.606;23.388;2024-02-16T05:35:02;94283.31;;;0.59;100.00
10261;BME280;5175;42.606;23.388;2024-02-16T05:37:36;94298.03;;;0.60;100.00
10261;BME280;5175;42.606;23.388;2024-02-16T05:40:08;94295.81;;;0.57;100.00
10261;BME280;5175;42.606;23.388;2024-02-16T05:42:46;94299.47;;;0.56;100.00
10261;BME280;5175;42.606;23.388;2024-02-16T05:45:13;94306.34;;;0.50;100.00
10261;BME280;5175;42.606;23.388;2024-02-16T05:47:41;94301.31;;;0.36;100.00
10261;BME280;5175;42.606;23.388;2024-02-16T05:50:08;94297.03;;;0.41;100.00
10261;BME280;5175;42.606;23.388;2024-02-16T05:52:37;94305.13;;;0.40;100.00
10261;BME280;5175;42.606;23.388;2024-02-16T05:55:04;94303.50;;;0.52;100.00
10261;BME280;5175;42.606;23.388;2024-02-16T05:57:31;94296.22;;;0.54;100.00
10261;BME280;5175;42.606;23.388;2024-02-16T05:59:58;94295.44;;;0.53;100.00
10261;BME280;5175;42.606;23.388;2024-02-16T06:02:25;94306.50;;;0.62;100.00
10261;BME280;5175;42.606;23.388;2024-02-16T06:04:54;94303.88;;;0.62;100.00
10261;BME280;5175;42.606;23.388;2024-02-16T06:07:20;94311.75;;;0.75;100.00
10261;BME280;5175;42.606;23.388;2024-02-16T06:09:47;94312.31;;;0.90;100.00
10261;BME280;5175;42.606;23.388;2024-02-16T06:12:14;94318.38;;;0.97;100.00
10261;BME280;5175;42.606;23.388;2024-02-16T06:14:41;94311.47;;;1.03;100.00
10261;BME280;5175;42.606;23.388;2024-02-16T06:17:08;94317.88;;;1.13;100.00
10261;BME280;5175;42.606;23.388;2024-02-16T06:19:34;94326.94;;;1.24;100.00
10261;BME280;5175;42.606;23.388;2024-02-16T06:22:03;94320.06;;;1.30;100.00
10261;BME280;5175;42.606;23.388;2024-02-16T06:24:30;94332.75;;;1.46;100.00
10261;BME280;5175;42.606;23.388;2024-02-16T06:26:57;94328.84;;;1.55;100.00
10261;BME280;5175;42.606;23.388;2024-02-16T06:29:24;94331.03;;;1.64;100.00
10261;BME280;5175;42.606;23.388;2024-02-16T06:31:50;94333.63;;;1.71;100.00
10261;BME280;5175;42.606;23.388;2024-02-16T06:34:17;94339.81;;;1.83;100.00
10261;BME280;5175;42.606;23.388;2024-02-16T06:36:44;94327.25;;;1.92;100.00
10261;BME280;5175;42.606;23.388;2024-02-16T06:39:14;94332.59;;;2.03;100.00
10261;BME280;5175;42.606;23.388;2024-02-16T06:41:42;94323.41;;;2.19;100.00
10261;BME280;5175;42.606;23.388;2024-02-16T06:44:09;94320.31;;;2.28;100.00
10261;BME280;5175;42.606;23.388;2024-02-16T06:46:36;94321.53;;;2.50;100.00
10261;BME280;5175;42.606;23.388;2024-02-16T06:49:02;94326.25;;;2.67;100.00
10261;BME280;5175;42.606;23.388;2024-02-16T06:51:29;94321.50;;;2.75;100.00
10261;BME280;5175;42.606;23.388;2024-02-16T06:53:56;94330.97;;;3.01;100.00
10261;BME280;5175;42.606;23.388;2024-02-16T06:56:24;94336.78;;;3.09;100.00
10261;BME280;5175;42.606;23.388;2024-02-16T06:58:51;94335.09;;;3.33;99.58
10261;BME280;5175;42.606;23.388;2024-02-16T07:01:17;94327.53;;;3.37;100.00
10261;BME280;5175;42.606;23.388;2024-02-16T07:03:45;94346.44;;;3.52;100.00
10261;BME280;5175;42.606;23.388;2024-02-16T07:06:12;94339.75;;;3.67;98.76
10261;BME280;5175;42.606;23.388;2024-02-16T07:08:39;94341.22;;;3.82;97.10
10261;BME280;5175;42.606;23.388;2024-02-16T07:11:05;94341.25;;;3.93;96.11
10261;BME280;5175;42.606;23.388;2024-02-16T07:13:34;94341.06;;;4.06;95.15
10261;BME280;5175;42.606;23.388;2024-02-16T07:16:01;94337.56;;;4.24;93.89
10261;BME280;5175;42.606;23.388;2024-02-16T07:18:29;94340.25;;;4.35;93.17
10261;BME280;5175;42.606;23.388;2024-02-16T07:20:56;94340.03;;;4.49;92.64
10261;BME280;5175;42.606;23.388;2024-02-16T07:23:24;94342.59;;;4.67;91.99
10261;BME280;5175;42.606;23.388;2024-02-16T07:25:51;94328.44;;;4.73;89.81
10261;BME280;5175;42.606;23.388;2024-02-16T07:28:20;94337.66;;;4.93;87.87
10261;BME280;5175;42.606;23.388;2024-02-16T07:30:48;94348.34;;;4.98;87.57
10261;BME280;5175;42.606;23.388;2024-02-16T07:33:15;94340.31;;;5.05;87.13
10261;BME280;5175;42.606;23.388;2024-02-16T07:35:42;94353.19;;;5.13;86.51
10261;BME280;5175;42.606;23.388;2024-02-16T07:38:09;94348.00;;;5.30;86.32
10261;BME280;5175;42.606;23.388;2024-02-16T07:40:36;94346.63;;;5.27;86.74
10261;BME280;5175;42.606;23.388;2024-02-16T07:43:03;94344.75;;;5.51;85.41
10261;BME280;5175;42.606;23.388;2024-02-16T07:45:31;94346.78;;;5.72;83.61
10261;BME280;5175;42.606;23.388;2024-02-16T07:47:59;94346.63;;;5.90;82.76
10261;BME280;5175;42.606;23.388;2024-02-16T07:50:30;94350.94;;;6.08;81.77
10261;BME280;5175;42.606;23.388;2024-02-16T07:52:57;94346.81;;;6.28;81.60
10261;BME280;5175;42.606;23.388;2024-02-16T07:55:23;94335.97;;;6.30;80.75
10261;BME280;5175;42.606;23.388;2024-02-16T07:57:50;94357.78;;;6.49;79.54
10261;BME280;5175;42.606;23.388;2024-02-16T08:00:18;94354.25;;;6.60;79.53
10261;BME280;5175;42.606;23.388;2024-02-16T08:02:45;94359.97;;;6.85;77.18
10261;BME280;5175;42.606;23.388;2024-02-16T08:05:13;94358.38;;;6.67;77.96
10261;BME280;5175;42.606;23.388;2024-02-16T08:07:40;94357.31;;;7.02;77.31
10261;BME280;5175;42.606;23.388;2024-02-16T08:10:08;94357.06;;;7.20;76.85
10261;BME280;5175;42.606;23.388;2024-02-16T08:12:35;94358.81;;;7.14;75.69
10261;BME280;5175;42.606;23.388;2024-02-16T08:15:04;94364.94;;;7.31;75.09
10261;BME280;5175;42.606;23.388;2024-02-16T08:17:32;94363.72;;;7.61;73.87
10261;BME280;5175;42.606;23.388;2024-02-16T08:19:59;94369.81;;;7.78;72.24
10261;BME280;5175;42.606;23.388;2024-02-16T08:22:27;94381.47;;;7.77;72.46
10261;BME280;5175;42.606;23.388;2024-02-16T08:24:54;94377.53;;;8.01;71.88
10261;BME280;5175;42.606;23.388;2024-02-16T08:27:20;94373.38;;;8.10;70.36
10261;BME280;5175;42.606;23.388;2024-02-16T08:29:47;94373.00;;;8.23;69.42
10261;BME280;5175;42.606;23.388;2024-02-16T08:32:14;94372.22;;;8.44;69.20
10261;BME280;5175;42.606;23.388;2024-02-16T08:34:41;94377.63;;;8.54;68.08
10261;BME280;5175;42.606;23.388;2024-02-16T08:37:08;94376.59;;;8.60;67.24
10261;BME280;5175;42.606;23.388;2024-02-16T08:39:37;94379.47;;;8.80;66.33
10261;BME280;5175;42.606;23.388;2024-02-16T08:42:05;94374.09;;;8.49;66.21
10261;BME280;5175;42.606;23.388;2024-02-16T08:44:31;94376.56;;;8.82;65.91
10261;BME280;5175;42.606;23.388;2024-02-16T08:46:58;94376.13;;;8.95;65.16
10261;BME280;5175;42.606;23.388;2024-02-16T08:49:25;94373.34;;;9.12;63.39
10261;BME280;5175;42.606;23.388;2024-02-16T08:51:52;94373.47;;;9.27;63.14
10261;BME280;5175;42.606;23.388;2024-02-16T08:54:19;94374.00;;;9.29;61.93
10261;BME280;5175;42.606;23.388;2024-02-16T08:56:47;94372.44;;;9.33;62.36
10261;BME280;5175;42.606;23.388;2024-02-16T08:59:13;94381.81;;;9.04;62.28
10261;BME280;5175;42.606;23.388;2024-02-16T09:01:42;94384.91;;;9.27;61.59
10261;BME280;5175;42.606;23.388;2024-02-16T09:04:09;94382.16;;;9.54;61.58
10261;BME280;5175;42.606;23.388;2024-02-16T09:06:35;94387.13;;;9.82;60.32
10261;BME280;5175;42.606;23.388;2024-02-16T09:09:03;94384.16;;;9.79;59.99
10261;BME280;5175;42.606;23.388;2024-02-16T09:11:32;94387.34;;;9.76;58.63
10261;BME280;5175;42.606;23.388;2024-02-16T09:14:00;94388.75;;;9.83;59.46
10261;BME280;5175;42.606;23.388;2024-02-16T09:16:27;94391.97;;;9.90;59.88
10261;BME280;5175;42.606;23.388;2024-02-16T09:18:53;94382.19;;;10.06;60.06
10261;BME280;5175;42.606;23.388;2024-02-16T09:21:20;94394.72;;;10.11;59.77
10261;BME280;5175;42.606;23.388;2024-02-16T09:23:49;94393.16;;;10.15;59.74
10261;BME280;5175;42.606;23.388;2024-02-16T09:26:16;94396.34;;;10.12;59.50
10261;BME280;5175;42.606;23.388;2024-02-16T09:28:42;94383.59;;;10.14;59.71
10261;BME280;5175;42.606;23.388;2024-02-16T09:31:14;94393.16;;;10.15;58.98
10261;BME280;5175;42.606;23.388;2024-02-16T09:33:40;94390.19;;;10.06;58.54
10261;BME280;5175;42.606;23.388;2024-02-16T09:36:07;94392.63;;;10.13;58.71
10261;BME280;5175;42.606;23.388;2024-02-16T09:38:34;94388.44;;;10.27;58.25
10261;BME280;5175;42.606;23.388;2024-02-16T09:41:01;94400.44;;;10.29;57.80
10261;BME280;5175;42.606;23.388;2024-02-16T09:43:29;94390.56;;;10.30;59.00
10261;BME280;5175;42.606;23.388;2024-02-16T09:45:57;94394.38;;;10.54;58.13
10261;BME280;5175;42.606;23.388;2024-02-16T09:48:27;94392.22;;;10.41;57.34
10261;BME280;5175;42.606;23.388;2024-02-16T09:50:54;94395.75;;;10.72;57.58
10261;BME280;5175;42.606;23.388;2024-02-16T09:53:24;94394.91;;;10.56;56.50
10261;BME280;5175;42.606;23.388;2024-02-16T09:55:51;94388.06;;;10.90;57.34
10261;BME280;5175;42.606;23.388;2024-02-16T09:58:18;94380.53;;;10.62;56.30
10261;BME280;5175;42.606;23.388;2024-02-16T10:00:49;94380.81;;;10.60;56.66
10261;BME280;5175;42.606;23.388;2024-02-16T10:03:27;94385.31;;;10.55;57.59
10261;BME280;5175;42.606;23.388;2024-02-16T10:06:04;94381.91;;;10.95;56.60
10261;BME280;5175;42.606;23.388;2024-02-16T10:08:32;94371.25;;;11.15;56.88
10261;BME280;5175;42.606;23.388;2024-02-16T10:11:02;94376.84;;;11.28;54.73
10261;BME280;5175;42.606;23.388;2024-02-16T10:13:29;94368.03;;;11.18;56.82
10261;BME280;5175;42.606;23.388;2024-02-16T10:16:06;94367.78;;;11.40;54.74
10261;BME280;5175;42.606;23.388;2024-02-16T10:18:36;94368.56;;;11.45;55.49
10261;BME280;5175;42.606;23.388;2024-02-16T10:21:03;94372.84;;;11.46;54.66
10261;BME280;5175;42.606;23.388;2024-02-16T10:23:29;94371.78;;;11.47;54.06
10261;BME280;5175;42.606;23.388;2024-02-16T10:25:57;94341.56;;;11.57;54.27
10261;BME280;5175;42.606;23.388;2024-02-16T10:28:24;94354.38;;;11.65;51.82
10261;BME280;5175;42.606;23.388;2024-02-16T10:30:57;94356.47;;;11.88;52.85
10261;BME280;5175;42.606;23.388;2024-02-16T10:33:27;94350.31;;;11.92;52.27
10261;BME280;5175;42.606;23.388;2024-02-16T10:35:56;94348.47;;;11.83;53.18
10261;BME280;5175;42.606;23.388;2024-02-16T10:38:24;94353.03;;;11.72;51.88
10261;BME280;5175;42.606;23.388;2024-02-16T10:40:53;94342.34;;;11.77;52.74
10261;BME280;5175;42.606;23.388;2024-02-16T10:43:20;94342.34;;;11.67;54.85
10261;BME280;5175;42.606;23.388;2024-02-16T10:45:47;94341.44;;;12.02;52.15
10261;BME280;5175;42.606;23.388;2024-02-16T10:48:18;94347.63;;;11.98;52.49
10261;BME280;5175;42.606;23.388;2024-02-16T10:50:45;94338.84;;;11.82;51.56
10261;BME280;5175;42.606;23.388;2024-02-16T10:53:19;94337.25;;;11.66;52.05
10261;BME280;5175;42.606;23.388;2024-02-16T10:55:46;94327.94;;;11.73;51.70
10261;BME280;5175;42.606;23.388;2024-02-16T10:58:13;94340.22;;;11.59;53.24
10261;BME280;5175;42.606;23.388;2024-02-16T11:00:50;94333.47;;;11.92;51.96
10261;BME280;5175;42.606;23.388;2024-02-16T11:03:17;94340.13;;;12.00;51.81
10261;BME280;5175;42.606;23.388;2024-02-16T11:05:44;94333.66;;;12.11;51.01
10261;BME280;5175;42.606;23.388;2024-02-16T11:08:13;94332.28;;;12.23;51.40
10261;BME280;5175;42.606;23.388;2024-02-16T11:10:53;94325.75;;;12.44;51.87
10261;BME280;5175;42.606;23.388;2024-02-16T11:13:22;94326.59;;;12.40;51.30
10261;BME280;5175;42.606;23.388;2024-02-16T11:15:56;94324.78;;;12.69;50.87
10261;BME280;5175;42.606;23.388;2024-02-16T11:18:23;94323.94;;;12.74;51.00
10261;BME280;5175;42.606;23.388;2024-02-16T11:20:50;94315.34;;;12.77;50.14
10261;BME280;5175;42.606;23.388;2024-02-16T11:23:17;94320.00;;;12.61;50.01
10261;BME280;5175;42.606;23.388;2024-02-16T11:25:51;94314.22;;;12.44;50.07
10261;BME280;5175;42.606;23.388;2024-02-16T11:28:18;94314.09;;;12.64;51.14
10261;BME280;5175;42.606;23.388;2024-02-16T11:30:45;94322.13;;;12.64;49.25
10261;BME280;5175;42.606;23.388;2024-02-16T11:33:11;94311.00;;;12.47;49.44
10261;BME280;5175;42.606;23.388;2024-02-16T11:35:39;94307.19;;;12.63;48.73
10261;BME280;5175;42.606;23.388;2024-02-16T11:38:07;94304.50;;;12.63;50.51
10261;BME280;5175;42.606;23.388;2024-02-16T11:40:33;94304.03;;;12.90;50.20
10261;BME280;5175;42.606;23.388;2024-02-16T11:43:01;94296.19;;;12.98;50.45
10261;BME280;5175;42.606;23.388;2024-02-16T11:45:28;94299.00;;;12.83;50.31
10261;BME280;5175;42.606;23.388;2024-02-16T11:48:05;94298.91;;;12.54;50.45
10261;BME280;5175;42.606;23.388;2024-02-16T11:50:33;94298.47;;;12.81;51.03
10261;BME280;5175;42.606;23.388;2024-02-16T11:52:59;94293.72;;;13.12;48.98
10261;BME280;5175;42.606;23.388;2024-02-16T11:55:26;94295.34;;;13.08;49.45
10261;BME280;5175;42.606;23.388;2024-02-16T11:57:53;94295.72;;;13.25;49.23
10261;BME280;5175;42.606;23.388;2024-02-16T12:00:23;94287.72;;;13.20;49.19
10261;BME280;5175;42.606;23.388;2024-02-16T12:02:59;94267.44;;;13.14;49.07
10261;BME280;5175;42.606;23.388;2024-02-16T12:05:26;94286.34;;;13.23;48.58
10261;BME280;5175;42.606;23.388;2024-02-16T12:07:53;94281.94;;;13.08;48.81
10261;BME280;5175;42.606;23.388;2024-02-16T12:10:20;94277.75;;;13.26;48.38
10261;BME280;5175;42.606;23.388;2024-02-16T12:12:47;94275.63;;;12.94;49.05
10261;BME280;5175;42.606;23.388;2024-02-16T12:15:14;94282.19;;;12.73;49.33
10261;BME280;5175;42.606;23.388;2024-02-16T12:17:44;94285.13;;;12.71;48.51
10261;BME280;5175;42.606;23.388;2024-02-16T12:20:11;94271.31;;;12.93;48.47
10261;BME280;5175;42.606;23.388;2024-02-16T12:22:39;94270.06;;;12.85;49.33
10261;BME280;5175;42.606;23.388;2024-02-16T12:25:06;94264.56;;;13.34;48.83
10261;BME280;5175;42.606;23.388;2024-02-16T12:27:33;94260.00;;;13.35;48.35
10261;BME280;5175;42.606;23.388;2024-02-16T12:30:00;94258.72;;;13.27;48.11
10261;BME280;5175;42.606;23.388;2024-02-16T12:32:27;94261.31;;;13.03;47.56
10261;BME280;5175;42.606;23.388;2024-02-16T12:34:55;94242.00;;;12.78;48.39
10261;BME280;5175;42.606;23.388;2024-02-16T12:37:23;94257.03;;;13.07;50.33
10261;BME280;5175;42.606;23.388;2024-02-16T12:39:49;94251.53;;;13.23;52.25
10261;BME280;5175;42.606;23.388;2024-02-16T12:42:16;94255.94;;;13.37;51.04
10261;BME280;5175;42.606;23.388;2024-02-16T12:44:43;94251.28;;;13.48;49.75
10261;BME280;5175;42.606;23.388;2024-02-16T12:47:09;94244.44;;;13.60;49.50
10261;BME280;5175;42.606;23.388;2024-02-16T12:49:36;94249.50;;;13.62;49.26
10261;BME280;5175;42.606;23.388;2024-02-16T12:52:04;94251.41;;;13.38;49.78
10261;BME280;5175;42.606;23.388;2024-02-16T12:54:31;94253.78;;;13.10;49.72
10261;BME280;5175;42.606;23.388;2024-02-16T12:56:58;94250.41;;;13.29;49.21
10261;BME280;5175;42.606;23.388;2024-02-16T12:59:25;94247.81;;;13.47;50.84
10261;BME280;5175;42.606;23.388;2024-02-16T13:01:52;94249.50;;;13.62;49.85
10261;BME280;5175;42.606;23.388;2024-02-16T13:04:18;94251.38;;;13.85;48.00
10261;BME280;5175;42.606;23.388;2024-02-16T13:06:48;94237.78;;;13.76;47.64
10261;BME280;5175;42.606;23.388;2024-02-16T13:09:16;94249.25;;;13.63;48.54
10261;BME280;5175;42.606;23.388;2024-02-16T13:11:43;94236.34;;;13.65;48.29
10261;BME280;5175;42.606;23.388;2024-02-16T13:14:09;94245.00;;;13.57;48.62
10261;BME280;5175;42.606;23.388;2024-02-16T13:16:36;94247.06;;;13.89;48.51
10261;BME280;5175;42.606;23.388;2024-02-16T13:19:03;94244.22;;;14.41;47.37
10261;BME280;5175;42.606;23.388;2024-02-16T13:21:29;94246.78;;;14.09;46.28
10261;BME280;5175;42.606;23.388;2024-02-16T13:23:56;94245.50;;;14.07;46.70